Friesach, Austria
Current Conditions -  °F | °C
As of 11:20 AM on Thursday 27 Nov 2014 (Local Time) from LOWK Reporting Station
Broken Clouds Broken Clouds  
Wind Chill: 37°   Ceiling: 3000
Heat Index: 37°   Visibility: 6mi
Dew Point: 32°   Wind: 2mph
Humidity: 81%   Direction: NA
Pressure: 30.03"   Gusts: NA
Location:  46.95°N, 14.4°E
Report Text: LOWK 270920Z VRB02KT 9999 SCT016 BKN030 03/00 Q1017 NOSIG
Loading
Personal Weather Stations






























Interactive Weather Map New forecast layout! Learn more

10-Day Weather Forecast

Advertisements
Track Severe Weather on mobile